sensor_id;sensor_type;location;lat;lon;timestamp;P1;durP1;ratioP1;P2;durP2;ratioP2
71150;SDS011;59071;42.138;24.768;2023-11-21T00:00:24;4.13;;;1.60;;
71150;SDS011;59071;42.138;24.768;2023-11-21T00:02:51;3.17;;;1.92;;
71150;SDS011;59071;42.138;24.768;2023-11-21T00:05:16;4.20;;;2.20;;
71150;SDS011;59071;42.138;24.768;2023-11-21T00:07:42;5.53;;;2.00;;
71150;SDS011;59071;42.138;24.768;2023-11-21T00:10:09;7.43;;;2.40;;
71150;SDS011;59071;42.138;24.768;2023-11-21T00:12:35;10.77;;;2.60;;
71150;SDS011;59071;42.138;24.768;2023-11-21T00:15:02;4.30;;;1.90;;
71150;SDS011;59071;42.138;24.768;2023-11-21T00:17:30;7.00;;;2.40;;
71150;SDS011;59071;42.138;24.768;2023-11-21T00:19:55;6.07;;;2.22;;
71150;SDS011;59071;42.138;24.768;2023-11-21T00:22:21;4.72;;;2.35;;
71150;SDS011;59071;42.138;24.768;2023-11-21T00:24:46;4.10;;;2.55;;
71150;SDS011;59071;42.138;24.768;2023-11-21T00:27:12;8.13;;;3.30;;
71150;SDS011;59071;42.138;24.768;2023-11-21T00:29:38;5.93;;;2.67;;
71150;SDS011;59071;42.138;24.768;2023-11-21T00:32:04;5.85;;;3.10;;
71150;SDS011;59071;42.138;24.768;2023-11-21T00:34:30;3.95;;;2.47;;
71150;SDS011;59071;42.138;24.768;2023-11-21T00:36:56;4.95;;;2.65;;
71150;SDS011;59071;42.138;24.768;2023-11-21T00:39:22;6.43;;;2.70;;
71150;SDS011;59071;42.138;24.768;2023-11-21T00:41:47;8.45;;;2.95;;
71150;SDS011;59071;42.138;24.768;2023-11-21T00:44:13;7.68;;;3.00;;
71150;SDS011;59071;42.138;24.768;2023-11-21T00:46:38;4.47;;;2.67;;
71150;SDS011;59071;42.138;24.768;2023-11-21T00:49:04;4.50;;;2.88;;
71150;SDS011;59071;42.138;24.768;2023-11-21T00:51:30;7.65;;;2.97;;
71150;SDS011;59071;42.138;24.768;2023-11-21T00:53:55;7.13;;;3.20;;
71150;SDS011;59071;42.138;24.768;2023-11-21T00:56:21;5.53;;;3.22;;
71150;SDS011;59071;42.138;24.768;2023-11-21T00:58:46;6.45;;;3.15;;
71150;SDS011;59071;42.138;24.768;2023-11-21T01:01:14;6.30;;;3.33;;
71150;SDS011;59071;42.138;24.768;2023-11-21T01:03:45;5.73;;;3.30;;
71150;SDS011;59071;42.138;24.768;2023-11-21T01:06:11;6.85;;;3.75;;
71150;SDS011;59071;42.138;24.768;2023-11-21T01:08:36;7.72;;;3.50;;
71150;SDS011;59071;42.138;24.768;2023-11-21T01:11:02;9.63;;;4.25;;
71150;SDS011;59071;42.138;24.768;2023-11-21T01:13:28;7.30;;;3.65;;
71150;SDS011;59071;42.138;24.768;2023-11-21T01:15:54;7.78;;;4.10;;
71150;SDS011;59071;42.138;24.768;2023-11-21T01:18:20;7.63;;;3.70;;
71150;SDS011;59071;42.138;24.768;2023-11-21T01:20:46;6.75;;;3.70;;
71150;SDS011;59071;42.138;24.768;2023-11-21T01:23:12;11.82;;;4.55;;
71150;SDS011;59071;42.138;24.768;2023-11-21T01:25:40;8.75;;;3.97;;
71150;SDS011;59071;42.138;24.768;2023-11-21T01:28:06;7.63;;;4.15;;
71150;SDS011;59071;42.138;24.768;2023-11-21T01:30:32;8.27;;;3.70;;
71150;SDS011;59071;42.138;24.768;2023-11-21T01:32:58;9.02;;;3.88;;
71150;SDS011;59071;42.138;24.768;2023-11-21T01:35:24;6.07;;;3.47;;
71150;SDS011;59071;42.138;24.768;2023-11-21T01:37:49;8.35;;;3.83;;
71150;SDS011;59071;42.138;24.768;2023-11-21T01:40:15;10.40;;;3.70;;
71150;SDS011;59071;42.138;24.768;2023-11-21T01:42:40;10.10;;;4.18;;
71150;SDS011;59071;42.138;24.768;2023-11-21T01:45:08;7.65;;;3.85;;
71150;SDS011;59071;42.138;24.768;2023-11-21T01:47:34;6.72;;;3.80;;
71150;SDS011;59071;42.138;24.768;2023-11-21T01:50:01;8.20;;;4.05;;
71150;SDS011;59071;42.138;24.768;2023-11-21T01:52:29;6.95;;;3.80;;
71150;SDS011;59071;42.138;24.768;2023-11-21T01:54:55;6.75;;;4.05;;
71150;SDS011;59071;42.138;24.768;2023-11-21T01:57:20;9.68;;;3.88;;
71150;SDS011;59071;42.138;24.768;2023-11-21T01:59:46;10.85;;;4.55;;
71150;SDS011;59071;42.138;24.768;2023-11-21T02:02:13;8.50;;;4.05;;
71150;SDS011;59071;42.138;24.768;2023-11-21T02:04:39;7.40;;;3.90;;
71150;SDS011;59071;42.138;24.768;2023-11-21T02:07:05;11.38;;;4.60;;
71150;SDS011;59071;42.138;24.768;2023-11-21T02:09:33;7.47;;;4.60;;
71150;SDS011;59071;42.138;24.768;2023-11-21T02:11:59;10.20;;;4.20;;
71150;SDS011;59071;42.138;24.768;2023-11-21T02:14:25;8.10;;;4.47;;
71150;SDS011;59071;42.138;24.768;2023-11-21T02:16:52;6.72;;;4.00;;
71150;SDS011;59071;42.138;24.768;2023-11-21T02:19:19;8.82;;;4.70;;
71150;SDS011;59071;42.138;24.768;2023-11-21T02:21:50;8.48;;;4.60;;
71150;SDS011;59071;42.138;24.768;2023-11-21T02:24:23;7.80;;;4.50;;
71150;SDS011;59071;42.138;24.768;2023-11-21T02:26:49;8.30;;;4.20;;
71150;SDS011;59071;42.138;24.768;2023-11-21T02:29:18;10.57;;;4.55;;
71150;SDS011;59071;42.138;24.768;2023-11-21T02:31:47;8.18;;;4.57;;
71150;SDS011;59071;42.138;24.768;2023-11-21T02:34:14;8.60;;;4.72;;
71150;SDS011;59071;42.138;24.768;2023-11-21T02:36:40;10.07;;;4.55;;
71150;SDS011;59071;42.138;24.768;2023-11-21T02:39:07;10.60;;;4.57;;
71150;SDS011;59071;42.138;24.768;2023-11-21T02:41:33;10.15;;;4.88;;
71150;SDS011;59071;42.138;24.768;2023-11-21T02:43:59;8.73;;;4.43;;
71150;SDS011;59071;42.138;24.768;2023-11-21T02:46:25;7.28;;;4.40;;
71150;SDS011;59071;42.138;24.768;2023-11-21T02:48:50;9.90;;;5.00;;
71150;SDS011;59071;42.138;24.768;2023-11-21T02:51:16;10.40;;;5.80;;
71150;SDS011;59071;42.138;24.768;2023-11-21T02:53:41;10.15;;;5.00;;
71150;SDS011;59071;42.138;24.768;2023-11-21T02:56:07;10.38;;;5.35;;
71150;SDS011;59071;42.138;24.768;2023-11-21T02:58:32;9.50;;;5.25;;
71150;SDS011;59071;42.138;24.768;2023-11-21T03:00:58;9.70;;;5.70;;
71150;SDS011;59071;42.138;24.768;2023-11-21T03:03:23;14.32;;;5.70;;
71150;SDS011;59071;42.138;24.768;2023-11-21T03:05:49;9.52;;;5.15;;
71150;SDS011;59071;42.138;24.768;2023-11-21T03:08:15;12.52;;;5.32;;
71150;SDS011;59071;42.138;24.768;2023-11-21T03:10:40;8.73;;;5.30;;
71150;SDS011;59071;42.138;24.768;2023-11-21T03:13:05;9.35;;;5.00;;
71150;SDS011;59071;42.138;24.768;2023-11-21T03:15:31;9.15;;;4.93;;
71150;SDS011;59071;42.138;24.768;2023-11-21T03:17:57;12.38;;;5.28;;
71150;SDS011;59071;42.138;24.768;2023-11-21T03:20:23;9.77;;;5.22;;
71150;SDS011;59071;42.138;24.768;2023-11-21T03:22:48;9.30;;;5.30;;
71150;SDS011;59071;42.138;24.768;2023-11-21T03:25:14;8.10;;;5.00;;
71150;SDS011;59071;42.138;24.768;2023-11-21T03:27:42;9.75;;;5.20;;
71150;SDS011;59071;42.138;24.768;2023-11-21T03:30:09;9.65;;;5.28;;
71150;SDS011;59071;42.138;24.768;2023-11-21T03:32:36;9.85;;;5.20;;
71150;SDS011;59071;42.138;24.768;2023-11-21T03:35:01;8.63;;;5.00;;
71150;SDS011;59071;42.138;24.768;2023-11-21T03:37:27;7.82;;;5.60;;
71150;SDS011;59071;42.138;24.768;2023-11-21T03:39:53;11.25;;;4.90;;
71150;SDS011;59071;42.138;24.768;2023-11-21T03:42:20;8.57;;;5.18;;
71150;SDS011;59071;42.138;24.768;2023-11-21T03:44:45;9.27;;;5.30;;
71150;SDS011;59071;42.138;24.768;2023-11-21T03:47:11;12.30;;;6.10;;
71150;SDS011;59071;42.138;24.768;2023-11-21T03:49:37;9.18;;;5.05;;
71150;SDS011;59071;42.138;24.768;2023-11-21T03:52:02;11.32;;;5.80;;
71150;SDS011;59071;42.138;24.768;2023-11-21T03:54:28;11.80;;;5.57;;
71150;SDS011;59071;42.138;24.768;2023-11-21T03:56:53;10.68;;;5.07;;
71150;SDS011;59071;42.138;24.768;2023-11-21T03:59:19;9.90;;;5.18;;
71150;SDS011;59071;42.138;24.768;2023-11-21T04:01:44;9.05;;;5.00;;
71150;SDS011;59071;42.138;24.768;2023-11-21T04:04:09;11.63;;;5.65;;
71150;SDS011;59071;42.138;24.768;2023-11-21T04:06:35;14.98;;;7.03;;
71150;SDS011;59071;42.138;24.768;2023-11-21T04:09:02;15.70;;;6.85;;
71150;SDS011;59071;42.138;24.768;2023-11-21T04:11:29;12.40;;;5.97;;
71150;SDS011;59071;42.138;24.768;2023-11-21T04:13:55;13.52;;;6.07;;
71150;SDS011;59071;42.138;24.768;2023-11-21T04:16:20;12.82;;;6.63;;
71150;SDS011;59071;42.138;24.768;2023-11-21T04:18:45;13.95;;;6.00;;
71150;SDS011;59071;42.138;24.768;2023-11-21T04:21:11;12.07;;;6.22;;
71150;SDS011;59071;42.138;24.768;2023-11-21T04:23:37;10.95;;;6.20;;
71150;SDS011;59071;42.138;24.768;2023-11-21T04:26:02;10.63;;;5.82;;
71150;SDS011;59071;42.138;24.768;2023-11-21T04:28:28;11.60;;;6.00;;
71150;SDS011;59071;42.138;24.768;2023-11-21T04:30:53;11.85;;;5.50;;
71150;SDS011;59071;42.138;24.768;2023-11-21T04:33:19;10.20;;;5.65;;
71150;SDS011;59071;42.138;24.768;2023-11-21T04:35:44;13.27;;;6.28;;
71150;SDS011;59071;42.138;24.768;2023-11-21T04:38:10;10.52;;;5.95;;
71150;SDS011;59071;42.138;24.768;2023-11-21T04:40:35;15.63;;;6.10;;
71150;SDS011;59071;42.138;24.768;2023-11-21T04:43:01;16.40;;;6.40;;
71150;SDS011;59071;42.138;24.768;2023-11-21T04:45:26;13.32;;;6.65;;
71150;SDS011;59071;42.138;24.768;2023-11-21T04:47:52;12.18;;;6.63;;
71150;SDS011;59071;42.138;24.768;2023-11-21T04:50:17;15.32;;;6.60;;
71150;SDS011;59071;42.138;24.768;2023-11-21T04:52:43;12.80;;;6.28;;
71150;SDS011;59071;42.138;24.768;2023-11-21T04:55:09;11.98;;;6.20;;
71150;SDS011;59071;42.138;24.768;2023-11-21T04:57:35;13.02;;;6.65;;
71150;SDS011;59071;42.138;24.768;2023-11-21T05:00:02;12.25;;;7.13;;
71150;SDS011;59071;42.138;24.768;2023-11-21T05:02:31;16.20;;;7.88;;
71150;SDS011;59071;42.138;24.768;2023-11-21T05:04:56;15.95;;;7.70;;
71150;SDS011;59071;42.138;24.768;2023-11-21T05:07:22;16.70;;;8.73;;
71150;SDS011;59071;42.138;24.768;2023-11-21T05:09:47;20.98;;;8.52;;
71150;SDS011;59071;42.138;24.768;2023-11-21T05:12:13;17.52;;;8.52;;
71150;SDS011;59071;42.138;24.768;2023-11-21T05:14:39;16.40;;;8.63;;
71150;SDS011;59071;42.138;24.768;2023-11-21T05:17:05;17.58;;;9.20;;
71150;SDS011;59071;42.138;24.768;2023-11-21T05:19:30;17.27;;;8.68;;
71150;SDS011;59071;42.138;24.768;2023-11-21T05:21:57;15.70;;;8.38;;
71150;SDS011;59071;42.138;24.768;2023-11-21T05:24:24;17.33;;;8.88;;
71150;SDS011;59071;42.138;24.768;2023-11-21T05:26:49;19.08;;;8.30;;
71150;SDS011;59071;42.138;24.768;2023-11-21T05:29:14;17.85;;;8.07;;
71150;SDS011;59071;42.138;24.768;2023-11-21T05:31:40;15.35;;;8.63;;
71150;SDS011;59071;42.138;24.768;2023-11-21T05:34:05;19.02;;;8.60;;
71150;SDS011;59071;42.138;24.768;2023-11-21T05:36:31;18.90;;;7.93;;
71150;SDS011;59071;42.138;24.768;2023-11-21T05:38:56;17.55;;;8.70;;
71150;SDS011;59071;42.138;24.768;2023-11-21T05:41:21;17.02;;;8.82;;
71150;SDS011;59071;42.138;24.768;2023-11-21T05:43:48;25.23;;;11.77;;
71150;SDS011;59071;42.138;24.768;2023-11-21T05:46:13;16.40;;;8.60;;
71150;SDS011;59071;42.138;24.768;2023-11-21T05:48:39;22.55;;;9.68;;
71150;SDS011;59071;42.138;24.768;2023-11-21T05:51:06;23.65;;;9.90;;
71150;SDS011;59071;42.138;24.768;2023-11-21T05:53:33;16.17;;;9.13;;
71150;SDS011;59071;42.138;24.768;2023-11-21T05:55:58;16.45;;;8.88;;
71150;SDS011;59071;42.138;24.768;2023-11-21T05:58:24;23.15;;;10.05;;
71150;SDS011;59071;42.138;24.768;2023-11-21T06:00:49;18.80;;;9.52;;
71150;SDS011;59071;42.138;24.768;2023-11-21T06:03:14;17.17;;;9.15;;
71150;SDS011;59071;42.138;24.768;2023-11-21T06:05:40;18.23;;;9.07;;
71150;SDS011;59071;42.138;24.768;2023-11-21T06:08:05;22.45;;;9.82;;
71150;SDS011;59071;42.138;24.768;2023-11-21T06:10:32;18.75;;;9.32;;
71150;SDS011;59071;42.138;24.768;2023-11-21T06:12:57;26.60;;;11.57;;
71150;SDS011;59071;42.138;24.768;2023-11-21T06:15:23;19.00;;;10.30;;
71150;SDS011;59071;42.138;24.768;2023-11-21T06:17:49;13.15;;;7.40;;
71150;SDS011;59071;42.138;24.768;2023-11-21T06:20:17;22.35;;;7.45;;
71150;SDS011;59071;42.138;24.768;2023-11-21T06:22:43;12.75;;;7.22;;
71150;SDS011;59071;42.138;24.768;2023-11-21T06:25:11;17.80;;;8.02;;
71150;SDS011;59071;42.138;24.768;2023-11-21T06:27:41;17.70;;;8.70;;
71150;SDS011;59071;42.138;24.768;2023-11-21T06:30:08;18.30;;;8.73;;
71150;SDS011;59071;42.138;24.768;2023-11-21T06:32:35;21.10;;;8.75;;
71150;SDS011;59071;42.138;24.768;2023-11-21T06:35:01;15.73;;;8.65;;
71150;SDS011;59071;42.138;24.768;2023-11-21T06:37:30;13.95;;;8.15;;
71150;SDS011;59071;42.138;24.768;2023-11-21T06:39:57;17.02;;;8.07;;
71150;SDS011;59071;42.138;24.768;2023-11-21T06:42:23;28.90;;;13.57;;
71150;SDS011;59071;42.138;24.768;2023-11-21T06:44:49;19.33;;;9.98;;
71150;SDS011;59071;42.138;24.768;2023-11-21T06:47:19;19.27;;;10.05;;
71150;SDS011;59071;42.138;24.768;2023-11-21T06:49:49;26.10;;;11.15;;
71150;SDS011;59071;42.138;24.768;2023-11-21T06:52:15;22.08;;;9.85;;
71150;SDS011;59071;42.138;24.768;2023-11-21T06:54:41;18.52;;;9.55;;
71150;SDS011;59071;42.138;24.768;2023-11-21T06:57:06;18.60;;;9.20;;
71150;SDS011;59071;42.138;24.768;2023-11-21T06:59:32;24.50;;;10.52;;
71150;SDS011;59071;42.138;24.768;2023-11-21T07:01:58;22.38;;;10.43;;
71150;SDS011;59071;42.138;24.768;2023-11-21T07:04:23;19.20;;;10.32;;
71150;SDS011;59071;42.138;24.768;2023-11-21T07:06:50;27.08;;;11.10;;
71150;SDS011;59071;42.138;24.768;2023-11-21T07:09:18;25.15;;;11.68;;
71150;SDS011;59071;42.138;24.768;2023-11-21T07:11:47;24.55;;;10.25;;
71150;SDS011;59071;42.138;24.768;2023-11-21T07:14:13;22.42;;;10.60;;
71150;SDS011;59071;42.138;24.768;2023-11-21T07:16:38;18.77;;;10.15;;
71150;SDS011;59071;42.138;24.768;2023-11-21T07:19:04;22.30;;;9.73;;
71150;SDS011;59071;42.138;24.768;2023-11-21T07:21:35;18.60;;;9.77;;
71150;SDS011;59071;42.138;24.768;2023-11-21T07:24:04;22.40;;;9.80;;
71150;SDS011;59071;42.138;24.768;2023-11-21T07:26:31;22.88;;;9.38;;
71150;SDS011;59071;42.138;24.768;2023-11-21T07:28:56;19.60;;;10.25;;
71150;SDS011;59071;42.138;24.768;2023-11-21T07:31:22;21.27;;;9.60;;
71150;SDS011;59071;42.138;24.768;2023-11-21T07:33:49;18.17;;;9.93;;
71150;SDS011;59071;42.138;24.768;2023-11-21T07:36:15;17.35;;;9.77;;
71150;SDS011;59071;42.138;24.768;2023-11-21T07:38:43;19.50;;;9.73;;
71150;SDS011;59071;42.138;24.768;2023-11-21T07:41:09;23.10;;;11.23;;
71150;SDS011;59071;42.138;24.768;2023-11-21T07:43:35;22.80;;;10.13;;
71150;SDS011;59071;42.138;24.768;2023-11-21T07:46:02;17.83;;;10.02;;
71150;SDS011;59071;42.138;24.768;2023-11-21T07:48:29;19.75;;;10.35;;
71150;SDS011;59071;42.138;24.768;2023-11-21T07:50:54;24.50;;;11.05;;
71150;SDS011;59071;42.138;24.768;2023-11-21T07:53:20;22.65;;;13.10;;
71150;SDS011;59071;42.138;24.768;2023-11-21T07:55:47;25.70;;;12.65;;
71150;SDS011;59071;42.138;24.768;2023-11-21T07:58:12;19.67;;;10.32;;
71150;SDS011;59071;42.138;24.768;2023-11-21T08:00:38;16.73;;;9.77;;
71150;SDS011;59071;42.138;24.768;2023-11-21T08:03:04;15.90;;;8.18;;
71150;SDS011;59071;42.138;24.768;2023-11-21T08:05:31;13.57;;;7.60;;
71150;SDS011;59071;42.138;24.768;2023-11-21T08:07:56;11.65;;;6.85;;
71150;SDS011;59071;42.138;24.768;2023-11-21T08:10:22;12.40;;;6.60;;
71150;SDS011;59071;42.138;24.768;2023-11-21T08:12:47;11.05;;;6.35;;
71150;SDS011;59071;42.138;24.768;2023-11-21T08:15:13;12.05;;;6.53;;
71150;SDS011;59071;42.138;24.768;2023-11-21T08:17:39;14.60;;;7.80;;
71150;SDS011;59071;42.138;24.768;2023-11-21T08:20:05;10.98;;;6.38;;
71150;SDS011;59071;42.138;24.768;2023-11-21T08:22:33;11.32;;;6.95;;
71150;SDS011;59071;42.138;24.768;2023-11-21T08:24:59;9.23;;;6.00;;
71150;SDS011;59071;42.138;24.768;2023-11-21T08:27:24;8.57;;;5.90;;
71150;SDS011;59071;42.138;24.768;2023-11-21T08:29:50;10.90;;;5.22;;
71150;SDS011;59071;42.138;24.768;2023-11-21T08:32:17;11.18;;;5.35;;
71150;SDS011;59071;42.138;24.768;2023-11-21T08:34:43;7.60;;;5.00;;
71150;SDS011;59071;42.138;24.768;2023-11-21T08:37:09;9.20;;;4.78;;
71150;SDS011;59071;42.138;24.768;2023-11-21T08:39:36;9.65;;;4.78;;
71150;SDS011;59071;42.138;24.768;2023-11-21T08:55:24;8.95;;;5.65;;
71150;SDS011;59071;42.138;24.768;2023-11-21T08:57:50;12.65;;;6.63;;
71150;SDS011;59071;42.138;24.768;2023-11-21T09:00:16;11.23;;;5.40;;
71150;SDS011;59071;42.138;24.768;2023-11-21T09:02:44;12.27;;;5.75;;
71150;SDS011;59071;42.138;24.768;2023-11-21T09:05:10;7.63;;;5.35;;
71150;SDS011;59071;42.138;24.768;2023-11-21T09:07:37;10.68;;;5.28;;
71150;SDS011;59071;42.138;24.768;2023-11-21T09:10:03;10.90;;;5.40;;
71150;SDS011;59071;42.138;24.768;2023-11-21T09:12:30;7.72;;;5.28;;
71150;SDS011;59071;42.138;24.768;2023-11-21T09:14:57;10.10;;;5.43;;
71150;SDS011;59071;42.138;24.768;2023-11-21T09:17:23;9.23;;;5.90;;
71150;SDS011;59071;42.138;24.768;2023-11-21T09:19:49;8.43;;;5.30;;
71150;SDS011;59071;42.138;24.768;2023-11-21T09:22:17;8.73;;;5.60;;
71150;SDS011;59071;42.138;24.768;2023-11-21T09:24:43;10.48;;;4.97;;
71150;SDS011;59071;42.138;24.768;2023-11-21T09:27:09;9.20;;;5.80;;
71150;SDS011;59071;42.138;24.768;2023-11-21T09:29:35;8.30;;;5.60;;
71150;SDS011;59071;42.138;24.768;2023-11-21T09:32:01;11.95;;;5.65;;
71150;SDS011;59071;42.138;24.768;2023-11-21T09:34:28;8.30;;;5.68;;
71150;SDS011;59071;42.138;24.768;2023-11-21T09:36:53;12.20;;;5.10;;
71150;SDS011;59071;42.138;24.768;2023-11-21T09:39:19;7.47;;;5.10;;
71150;SDS011;59071;42.138;24.768;2023-11-21T09:44:22;10.73;;;5.78;;
71150;SDS011;59071;42.138;24.768;2023-11-21T09:46:58;15.48;;;5.95;;
71150;SDS011;59071;42.138;24.768;2023-11-21T09:49:24;8.45;;;5.65;;
71150;SDS011;59071;42.138;24.768;2023-11-21T09:51:51;9.05;;;5.07;;
71150;SDS011;59071;42.138;24.768;2023-11-21T09:54:22;9.23;;;4.80;;
71150;SDS011;59071;42.138;24.768;2023-11-21T09:56:48;6.80;;;4.90;;
71150;SDS011;59071;42.138;24.768;2023-11-21T09:59:15;9.82;;;5.70;;
71150;SDS011;59071;42.138;24.768;2023-11-21T10:01:40;11.40;;;5.40;;
71150;SDS011;59071;42.138;24.768;2023-11-21T10:04:07;10.82;;;4.95;;
71150;SDS011;59071;42.138;24.768;2023-11-21T10:09:11;11.68;;;5.38;;
71150;SDS011;59071;42.138;24.768;2023-11-21T10:11:41;8.55;;;5.68;;
71150;SDS011;59071;42.138;24.768;2023-11-21T10:14:10;11.13;;;5.88;;
71150;SDS011;59071;42.138;24.768;2023-11-21T10:16:37;10.50;;;6.80;;
71150;SDS011;59071;42.138;24.768;2023-11-21T10:19:04;12.30;;;6.45;;
71150;SDS011;59071;42.138;24.768;2023-11-21T10:21:32;17.23;;;6.50;;
71150;SDS011;59071;42.138;24.768;2023-11-21T10:23:58;9.63;;;5.75;;
71150;SDS011;59071;42.138;24.768;2023-11-21T10:26:24;11.27;;;5.72;;
71150;SDS011;59071;42.138;24.768;2023-11-21T10:28:55;16.27;;;6.50;;
71150;SDS011;59071;42.138;24.768;2023-11-21T10:31:24;12.65;;;7.18;;
71150;SDS011;59071;42.138;24.768;2023-11-21T10:33:51;13.75;;;6.32;;
71150;SDS011;59071;42.138;24.768;2023-11-21T10:36:26;8.00;;;5.68;;
71150;SDS011;59071;42.138;24.768;2023-11-21T10:38:53;9.70;;;5.45;;
71150;SDS011;59071;42.138;24.768;2023-11-21T10:41:19;9.63;;;6.10;;
71150;SDS011;59071;42.138;24.768;2023-11-21T10:43:45;10.73;;;6.20;;
71150;SDS011;59071;42.138;24.768;2023-11-21T10:46:11;9.30;;;6.05;;
71150;SDS011;59071;42.138;24.768;2023-11-21T10:48:36;12.90;;;5.45;;
71150;SDS011;59071;42.138;24.768;2023-11-21T10:51:09;10.82;;;5.53;;
71150;SDS011;59071;42.138;24.768;2023-11-21T10:53:38;11.20;;;6.13;;
71150;SDS011;59071;42.138;24.768;2023-11-21T10:56:08;9.77;;;5.97;;
71150;SDS011;59071;42.138;24.768;2023-11-21T10:58:36;8.90;;;5.75;;
71150;SDS011;59071;42.138;24.768;2023-11-21T11:01:03;11.00;;;5.70;;
71150;SDS011;59071;42.138;24.768;2023-11-21T11:03:32;10.13;;;5.72;;
71150;SDS011;59071;42.138;24.768;2023-11-21T11:06:01;8.98;;;5.88;;
71150;SDS011;59071;42.138;24.768;2023-11-21T11:08:28;12.25;;;5.68;;
71150;SDS011;59071;42.138;24.768;2023-11-21T11:10:53;9.52;;;5.60;;
71150;SDS011;59071;42.138;24.768;2023-11-21T11:13:19;10.95;;;5.70;;
71150;SDS011;59071;42.138;24.768;2023-11-21T11:15:49;10.75;;;5.80;;
71150;SDS011;59071;42.138;24.768;2023-11-21T11:18:15;10.32;;;6.20;;
71150;SDS011;59071;42.138;24.768;2023-11-21T11:20:42;8.52;;;5.50;;
71150;SDS011;59071;42.138;24.768;2023-11-21T11:34:23;8.85;;;5.28;;
71150;SDS011;59071;42.138;24.768;2023-11-21T11:39:42;9.25;;;5.40;;
71150;SDS011;59071;42.138;24.768;2023-11-21T11:42:14;9.02;;;5.53;;
71150;SDS011;59071;42.138;24.768;2023-11-21T11:47:29;7.93;;;4.50;;
71150;SDS011;59071;42.138;24.768;2023-11-21T11:50:06;10.20;;;3.92;;
71150;SDS011;59071;42.138;24.768;2023-11-21T11:52:52;8.23;;;3.55;;
71150;SDS011;59071;42.138;24.768;2023-11-21T11:55:23;6.65;;;3.78;;
71150;SDS011;59071;42.138;24.768;2023-11-21T11:57:53;7.40;;;4.13;;
71150;SDS011;59071;42.138;24.768;2023-11-21T12:02:53;10.40;;;4.53;;
71150;SDS011;59071;42.138;24.768;2023-11-21T12:05:27;8.50;;;4.10;;
71150;SDS011;59071;42.138;24.768;2023-11-21T12:10:26;6.30;;;4.28;;
71150;SDS011;59071;42.138;24.768;2023-11-21T12:15:23;8.50;;;4.88;;
71150;SDS011;59071;42.138;24.768;2023-11-21T12:17:50;8.32;;;5.38;;
71150;SDS011;59071;42.138;24.768;2023-11-21T12:20:19;10.00;;;5.07;;
71150;SDS011;59071;42.138;24.768;2023-11-21T12:22:47;10.50;;;5.72;;
71150;SDS011;59071;42.138;24.768;2023-11-21T12:25:17;12.90;;;6.32;;
71150;SDS011;59071;42.138;24.768;2023-11-21T12:27:48;8.75;;;6.07;;
71150;SDS011;59071;42.138;24.768;2023-11-21T12:30:15;11.80;;;6.68;;
71150;SDS011;59071;42.138;24.768;2023-11-21T12:32:47;13.27;;;6.20;;
71150;SDS011;59071;42.138;24.768;2023-11-21T12:35:16;8.32;;;5.53;;
71150;SDS011;59071;42.138;24.768;2023-11-21T12:37:44;10.43;;;5.60;;
71150;SDS011;59071;42.138;24.768;2023-11-21T12:40:12;9.10;;;5.70;;
71150;SDS011;59071;42.138;24.768;2023-11-21T12:42:43;8.73;;;4.68;;
71150;SDS011;59071;42.138;24.768;2023-11-21T12:47:51;9.02;;;3.97;;
71150;SDS011;59071;42.138;24.768;2023-11-21T12:50:24;4.60;;;3.20;;
71150;SDS011;59071;42.138;24.768;2023-11-21T12:52:53;6.32;;;3.85;;
71150;SDS011;59071;42.138;24.768;2023-11-21T12:55:22;5.47;;;3.60;;
71150;SDS011;59071;42.138;24.768;2023-11-21T12:57:52;5.80;;;3.53;;
71150;SDS011;59071;42.138;24.768;2023-11-21T13:00:31;5.93;;;3.63;;
71150;SDS011;59071;42.138;24.768;2023-11-21T13:02:59;6.28;;;3.45;;
71150;SDS011;59071;42.138;24.768;2023-11-21T13:05:25;5.32;;;3.47;;
71150;SDS011;59071;42.138;24.768;2023-11-21T13:07:53;4.97;;;3.47;;
71150;SDS011;59071;42.138;24.768;2023-11-21T13:10:26;4.80;;;3.40;;
71150;SDS011;59071;42.138;24.768;2023-11-21T13:12:56;5.40;;;3.28;;
71150;SDS011;59071;42.138;24.768;2023-11-21T13:15:24;4.07;;;3.13;;
71150;SDS011;59071;42.138;24.768;2023-11-21T13:17:50;6.40;;;3.40;;
71150;SDS011;59071;42.138;24.768;2023-11-21T13:20:16;5.75;;;3.35;;
71150;SDS011;59071;42.138;24.768;2023-11-21T13:23:00;5.78;;;3.53;;
71150;SDS011;59071;42.138;24.768;2023-11-21T13:25:27;5.40;;;4.05;;
71150;SDS011;59071;42.138;24.768;2023-11-21T13:27:56;7.15;;;4.45;;
71150;SDS011;59071;42.138;24.768;2023-11-21T13:30:23;6.00;;;4.45;;
71150;SDS011;59071;42.138;24.768;2023-11-21T13:32:55;8.35;;;4.50;;
71150;SDS011;59071;42.138;24.768;2023-11-21T13:35:26;6.68;;;4.07;;
71150;SDS011;59071;42.138;24.768;2023-11-21T13:38:06;6.55;;;4.07;;
71150;SDS011;59071;42.138;24.768;2023-11-21T13:40:42;10.65;;;4.03;;
71150;SDS011;59071;42.138;24.768;2023-11-21T13:43:14;9.40;;;5.03;;
71150;SDS011;59071;42.138;24.768;2023-11-21T13:45:42;8.50;;;5.20;;
71150;SDS011;59071;42.138;24.768;2023-11-21T13:48:09;11.10;;;5.50;;
71150;SDS011;59071;42.138;24.768;2023-11-21T13:50:42;11.10;;;5.70;;
71150;SDS011;59071;42.138;24.768;2023-11-21T13:53:23;12.63;;;5.78;;
71150;SDS011;59071;42.138;24.768;2023-11-21T13:55:53;11.68;;;6.57;;
71150;SDS011;59071;42.138;24.768;2023-11-21T13:58:20;12.75;;;6.72;;
71150;SDS011;59071;42.138;24.768;2023-11-21T14:00:51;12.48;;;6.32;;
71150;SDS011;59071;42.138;24.768;2023-11-21T14:03:23;11.50;;;6.28;;
71150;SDS011;59071;42.138;24.768;2023-11-21T14:05:50;11.27;;;5.68;;
71150;SDS011;59071;42.138;24.768;2023-11-21T14:08:17;8.50;;;5.43;;
71150;SDS011;59071;42.138;24.768;2023-11-21T14:10:45;8.13;;;5.50;;
71150;SDS011;59071;42.138;24.768;2023-11-21T14:13:16;8.18;;;5.47;;
71150;SDS011;59071;42.138;24.768;2023-11-21T14:15:42;9.80;;;5.38;;
71150;SDS011;59071;42.138;24.768;2023-11-21T14:18:15;9.88;;;5.07;;
71150;SDS011;59071;42.138;24.768;2023-11-21T14:20:42;9.02;;;5.20;;
71150;SDS011;59071;42.138;24.768;2023-11-21T14:23:09;8.77;;;5.40;;
71150;SDS011;59071;42.138;24.768;2023-11-21T14:25:35;8.07;;;5.47;;
71150;SDS011;59071;42.138;24.768;2023-11-21T14:28:05;9.52;;;5.32;;
71150;SDS011;59071;42.138;24.768;2023-11-21T14:30:36;8.15;;;5.28;;
71150;SDS011;59071;42.138;24.768;2023-11-21T14:33:03;9.90;;;5.90;;
71150;SDS011;59071;42.138;24.768;2023-11-21T14:35:29;11.77;;;5.82;;
71150;SDS011;59071;42.138;24.768;2023-11-21T14:37:57;9.07;;;5.88;;
71150;SDS011;59071;42.138;24.768;2023-11-21T14:40:24;10.52;;;5.85;;
71150;SDS011;59071;42.138;24.768;2023-11-21T14:42:50;12.02;;;7.03;;
71150;SDS011;59071;42.138;24.768;2023-11-21T14:45:20;10.55;;;6.75;;
71150;SDS011;59071;42.138;24.768;2023-11-21T14:47:46;13.18;;;6.57;;
71150;SDS011;59071;42.138;24.768;2023-11-21T14:50:21;11.93;;;6.38;;
71150;SDS011;59071;42.138;24.768;2023-11-21T14:53:05;11.70;;;6.20;;
71150;SDS011;59071;42.138;24.768;2023-11-21T14:55:34;11.13;;;6.65;;
71150;SDS011;59071;42.138;24.768;2023-11-21T14:58:16;9.48;;;6.75;;
71150;SDS011;59071;42.138;24.768;2023-11-21T15:00:51;13.20;;;7.32;;
71150;SDS011;59071;42.138;24.768;2023-11-21T15:03:24;12.98;;;7.35;;
71150;SDS011;59071;42.138;24.768;2023-11-21T15:05:56;15.98;;;7.93;;
71150;SDS011;59071;42.138;24.768;2023-11-21T15:08:23;14.00;;;8.68;;
71150;SDS011;59071;42.138;24.768;2023-11-21T15:10:56;15.63;;;9.57;;